Time;durP1;ratioP1;P1;durP2;ratioP2;P2;SDS_P1;SDS_P2;PMS_P1;PMS_P2;Temp;Humidity;BMP_temperature;BMP_pressure;BME280_temperature;BME280_humidity;BME280_pressure;Samples;Min_cycle;Max_cycle;Signal;HPM_P1;HPM_P2
2021/04/23 00:01:18;;;;;;;14.05;5.43;;;5.30;99.90;;;;;;12398853;28;20503;-80
2021/04/23 00:07:19;;;;;;;12.10;5.18;;;5.50;99.90;;;;;;12385213;28;20046;-80
2021/04/23 00:13:21;;;;;;;19.10;6.32;;;5.50;99.90;;;;;;12404736;28;20065;-80
2021/04/23 00:19:25;;;;;;;17.35;5.80;;;5.50;99.90;;;;;;12390364;28;20049;-80
2021/04/23 00:25:27;;;;;;;16.95;6.30;;;5.60;99.90;;;;;;12388403;28;20066;-80
2021/04/23 00:31:32;;;;;;;14.20;5.95;;;5.60;99.90;;;;;;12384396;28;20046;-80
2021/04/23 00:37:34;;;;;;;15.50;5.80;;;5.60;99.90;;;;;;12387847;28;20062;-80
2021/04/23 00:43:38;;;;;;;14.30;6.15;;;5.60;99.90;;;;;;12386781;28;20566;-80
2021/04/23 00:49:40;;;;;;;12.82;6.40;;;5.60;99.90;;;;;;12381324;28;20185;-80
2021/04/23 00:55:41;;;;;;;15.50;6.88;;;5.60;99.90;;;;;;12381478;28;20534;-80
2021/04/23 01:01:54;;;;;;;17.20;5.55;;;5.70;99.90;;;;;;12381557;28;20074;-80
2021/04/23 01:07:55;;;;;;;14.82;6.03;;;5.60;99.90;;;;;;12399616;28;20712;-80
2021/04/23 01:13:57;;;;;;;17.65;6.00;;;5.60;99.90;;;;;;12372547;28;20350;-80
2021/04/23 01:19:59;;;;;;;10.20;5.88;;;5.70;99.90;;;;;;12385703;28;20069;-81
2021/04/23 01:26:01;;;;;;;15.18;6.85;;;5.70;99.90;;;;;;12386125;28;20089;-80
2021/04/23 01:32:03;;;;;;;11.63;5.82;;;5.70;99.90;;;;;;12387643;28;20085;-80
2021/04/23 01:38:04;;;;;;;14.52;6.50;;;5.80;99.90;;;;;;12380579;28;20054;-80
2021/04/23 01:44:07;;;;;;;15.02;6.95;;;5.70;99.90;;;;;;12385965;28;20050;-81
2021/04/23 01:50:16;;;;;;;15.43;6.40;;;5.60;99.90;;;;;;12385386;28;20078;-80
2021/04/23 01:56:17;;;;;;;17.85;6.78;;;5.50;99.90;;;;;;12390138;28;20498;-80
2021/04/23 02:02:18;;;;;;;12.88;6.80;;;5.60;99.90;;;;;;12385087;28;20454;-80
2021/04/23 02:08:23;;;;;;;19.00;6.82;;;5.60;99.90;;;;;;12382725;28;20130;-80
2021/04/23 02:14:27;;;;;;;13.55;5.97;;;5.60;99.90;;;;;;12380833;28;20137;-80
2021/04/23 02:20:33;;;;;;;14.57;6.85;;;5.60;99.90;;;;;;12383663;28;20051;-80
2021/04/23 02:26:36;;;;;;;15.73;6.88;;;5.50;99.90;;;;;;12406497;28;20419;-80
2021/04/23 02:32:38;;;;;;;14.60;6.85;;;5.50;99.90;;;;;;12379247;28;20045;-80
2021/04/23 02:38:39;;;;;;;19.00;6.72;;;5.40;99.90;;;;;;12390965;28;20050;-80
2021/04/23 02:44:41;;;;;;;15.85;7.05;;;5.40;99.90;;;;;;12395146;28;20190;-80
2021/04/23 02:50:47;;;;;;;14.80;6.45;;;5.40;99.90;;;;;;12391114;28;20110;-80
2021/04/23 02:56:48;;;;;;;18.65;7.07;;;5.40;99.90;;;;;;12408740;28;20129;-80
2021/04/23 03:02:50;;;;;;;14.65;6.65;;;5.50;99.90;;;;;;12395146;28;20089;-80
2021/04/23 03:08:52;;;;;;;14.07;6.15;;;5.50;99.90;;;;;;12396116;28;20085;-80
2021/04/23 03:14:54;;;;;;;15.82;5.90;;;5.40;99.90;;;;;;12393724;28;20046;-80
2021/04/23 03:20:57;;;;;;;14.95;6.47;;;5.40;99.90;;;;;;12404866;28;20185;-81
2021/04/23 03:26:58;;;;;;;17.90;5.80;;;5.40;99.90;;;;;;12389593;28;20054;-80
2021/04/23 03:33:00;;;;;;;13.85;5.93;;;5.40;99.90;;;;;;12393752;28;20180;-80
2021/04/23 03:39:04;;;;;;;14.77;6.00;;;5.50;99.90;;;;;;12384315;28;20510;-80
2021/04/23 03:45:07;;;;;;;17.25;6.03;;;5.50;99.90;;;;;;12407106;28;20055;-80
2021/04/23 03:51:10;;;;;;;17.75;5.75;;;5.50;99.90;;;;;;12388160;28;20629;-80
2021/04/23 03:57:11;;;;;;;14.45;5.95;;;5.40;99.90;;;;;;12386029;28;20057;-81
2021/04/23 04:03:13;;;;;;;16.55;5.68;;;5.50;99.90;;;;;;12387962;28;20045;-80
2021/04/23 04:09:16;;;;;;;13.02;5.47;;;5.50;99.90;;;;;;12389186;28;20074;-80
2021/04/23 04:15:18;;;;;;;18.42;5.80;;;5.40;99.90;;;;;;12387407;28;20076;-80
2021/04/23 04:21:19;;;;;;;14.43;5.90;;;5.40;99.90;;;;;;12401212;28;20482;-80
2021/04/23 04:27:20;;;;;;;16.67;6.15;;;5.50;99.90;;;;;;12379874;28;20095;-80
2021/04/23 04:33:22;;;;;;;19.02;6.82;;;5.50;99.90;;;;;;12375962;28;20125;-80
2021/04/23 04:39:23;;;;;;;16.55;5.90;;;5.60;99.90;;;;;;12388286;28;20506;-80
2021/04/23 04:45:26;;;;;;;17.23;5.70;;;5.50;99.90;;;;;;12402231;28;20137;-80
2021/04/23 04:51:28;;;;;;;13.82;6.60;;;5.50;99.90;;;;;;12388664;28;20141;-81
2021/04/23 04:57:29;;;;;;;16.25;5.75;;;5.50;99.90;;;;;;12388892;28;20100;-81
2021/04/23 05:03:31;;;;;;;16.15;6.47;;;5.50;99.90;;;;;;12380298;28;20453;-81
2021/04/23 05:09:32;;;;;;;12.70;5.20;;;5.60;99.90;;;;;;12379725;28;20046;-81
2021/04/23 05:15:34;;;;;;;17.65;6.53;;;5.60;99.90;;;;;;12413785;28;20049;-81
2021/04/23 05:21:37;;;;;;;20.60;5.57;;;5.60;99.90;;;;;;12391065;28;20460;-81
2021/04/23 05:27:39;;;;;;;11.00;5.78;;;5.70;99.90;;;;;;12398501;28;20046;-81
2021/04/23 05:33:44;;;;;;;15.20;5.85;;;5.80;99.90;;;;;;12395021;28;20042;-81
2021/04/23 05:39:47;;;;;;;15.90;5.75;;;5.90;99.90;;;;;;12399049;28;20050;-81
2021/04/23 05:45:49;;;;;;;9.35;5.30;;;5.80;99.90;;;;;;12387600;28;20046;-82
2021/04/23 05:51:51;;;;;;;13.68;5.45;;;5.70;99.90;;;;;;12384655;28;20046;-81
2021/04/23 05:57:58;;;;;;;14.48;5.57;;;5.90;99.90;;;;;;12395021;28;20084;-81
2021/04/23 06:03:59;;;;;;;13.77;4.90;;;5.90;99.90;;;;;;12391333;28;20045;-81
2021/04/23 06:10:01;;;;;;;13.70;5.10;;;6.10;99.90;;;;;;12394029;28;20271;-81
2021/04/23 06:16:02;;;;;;;14.65;5.72;;;6.20;99.90;;;;;;12398590;28;20054;-81
2021/04/23 06:22:06;;;;;;;12.63;5.18;;;6.20;99.90;;;;;;12400476;28;20047;-81
2021/04/23 06:28:08;;;;;;;16.20;5.55;;;6.40;99.90;;;;;;12394103;28;20042;-81
2021/04/23 06:34:11;;;;;;;12.70;4.60;;;6.40;99.90;;;;;;12391865;28;20443;-81
2021/04/23 06:40:13;;;;;;;11.90;5.07;;;6.50;99.90;;;;;;12411859;28;20054;-81
2021/04/23 06:46:14;;;;;;;12.27;4.82;;;6.60;99.90;;;;;;12393640;28;20130;-81
2021/04/23 06:52:16;;;;;;;18.70;5.22;;;6.60;99.90;;;;;;12386943;28;20050;-81
2021/04/23 06:58:17;;;;;;;13.18;4.90;;;6.90;99.90;;;;;;12410294;28;20096;-80
2021/04/23 07:04:19;;;;;;;12.93;4.70;;;7.00;99.90;;;;;;12393432;28;20046;-81
2021/04/23 07:10:25;;;;;;;11.35;4.95;;;7.10;99.90;;;;;;12395566;28;20050;-81
2021/04/23 07:16:26;;;;;;;;;;;7.20;99.90;;;;;;12412202;28;20089;-81
2021/04/23 07:22:27;;;;;;;13.25;4.88;;;7.40;99.90;;;;;;12412680;28;19926;-81
2021/04/23 07:28:29;;;;;;;10.75;4.80;;;7.50;99.90;;;;;;12409586;28;20043;-81
2021/04/23 07:34:30;;;;;;;13.93;4.95;;;7.70;99.90;;;;;;12397211;28;20042;-81
2021/04/23 07:40:32;;;;;;;12.52;5.05;;;7.70;99.90;;;;;;12398977;28;20046;-81
2021/04/23 07:46:34;;;;;;;12.43;5.20;;;8.10;99.90;;;;;;12394998;28;20133;-82
2021/04/23 07:52:36;;;;;;;10.60;4.30;;;8.00;99.90;;;;;;12392791;28;20065;-81
2021/04/23 07:58:37;;;;;;;10.82;4.22;;;8.40;99.90;;;;;;12396916;28;20054;-80
2021/04/23 08:04:39;;;;;;;10.13;3.55;;;8.50;99.90;;;;;;12391966;28;20439;-81
2021/04/23 08:10:41;;;;;;;11.23;3.53;;;8.90;99.90;;;;;;12383354;28;20046;-81
2021/04/23 08:16:42;;;;;;;8.93;3.40;;;8.70;99.90;;;;;;12392286;28;20502;-81
2021/04/23 08:22:44;;;;;;;10.88;4.25;;;8.50;99.90;;;;;;12384042;28;20119;-81
2021/04/23 08:28:46;;;;;;;8.00;4.00;;;8.50;99.90;;;;;;12385600;28;20163;-81
2021/04/23 08:34:47;;;;;;;12.25;4.15;;;8.90;99.90;;;;;;12389843;28;20050;-81
2021/04/23 08:40:49;;;;;;;12.10;4.15;;;9.00;99.90;;;;;;12394150;28;20144;-81
2021/04/23 08:46:51;;;;;;;12.43;4.30;;;9.20;99.90;;;;;;12391935;28;20084;-82
2021/04/23 08:52:54;;;;;;;14.40;5.03;;;9.10;99.90;;;;;;12389146;28;20451;-81
2021/04/23 08:58:55;;;;;;;12.50;4.63;;;9.50;99.90;;;;;;12381174;28;20180;-81
2021/04/23 09:04:56;;;;;;;14.05;4.10;;;9.70;99.90;;;;;;12395949;28;20046;-81
2021/04/23 09:10:58;;;;;;;12.63;3.90;;;9.70;99.90;;;;;;12389751;28;20053;-81
2021/04/23 09:17:00;;;;;;;9.82;4.25;;;9.70;99.90;;;;;;12385830;28;20628;-80
2021/04/23 09:23:18;;;;;;;11.00;4.28;;;9.60;99.90;;;;;;12387648;28;20052;-81
2021/04/23 09:29:31;;;;;;;10.27;4.35;;;9.70;99.90;;;;;;12412316;28;20133;-81
2021/04/23 09:35:36;;;;;;;9.10;4.47;;;10.00;99.90;;;;;;12393495;28;20126;-82
2021/04/23 09:42:08;;;;;;;11.55;4.13;;;10.30;99.90;;;;;;12410871;28;20462;-81
2021/04/23 09:48:24;;;;;;;10.80;3.95;;;10.60;99.90;;;;;;12417958;28;20050;-82
2021/04/23 09:54:26;;;;;;;11.38;4.30;;;10.70;99.90;;;;;;12395933;28;20077;-81
2021/04/23 10:00:29;;;;;;;8.68;3.65;;;10.30;99.90;;;;;;12411638;28;20592;-81
2021/04/23 10:06:33;;;;;;;8.80;4.28;;;10.90;99.90;;;;;;12414125;28;20046;-82
2021/04/23 10:12:55;;;;;;;15.50;3.70;;;11.20;99.90;;;;;;12391466;28;20043;-82
2021/04/23 10:18:56;;;;;;;7.30;3.92;;;11.40;99.90;;;;;;12394809;28;20137;-81
2021/04/23 10:24:57;;;;;;;13.10;4.55;;;11.20;99.90;;;;;;12413081;28;20042;-81
2021/04/23 10:30:58;;;;;;;7.43;3.80;;;11.60;99.90;;;;;;12396304;28;20045;-82
2021/04/23 10:37:02;;;;;;;9.27;3.72;;;11.70;99.90;;;;;;12399937;28;20887;-81
2021/04/23 10:43:17;;;;;;;8.23;4.15;;;12.00;99.90;;;;;;12392811;28;20046;-81
2021/04/23 10:49:19;;;;;;;9.48;4.03;;;12.00;99.90;;;;;;12416308;28;20118;-82
2021/04/23 10:55:20;;;;;;;11.98;4.60;;;12.50;99.90;;;;;;12392787;28;20181;-82
2021/04/23 11:01:25;;;;;;;11.65;4.20;;;12.60;99.90;;;;;;12399756;28;20089;-81
2021/04/23 11:07:27;;;;;;;12.15;4.10;;;12.70;99.90;;;;;;12414336;28;20141;-82
2021/04/23 11:13:33;;;;;;;9.65;4.13;;;12.10;99.90;;;;;;12400953;28;20057;-82
2021/04/23 11:19:36;;;;;;;7.70;4.10;;;11.60;99.90;;;;;;12400922;28;20070;-81
2021/04/23 11:25:55;;;;;;;10.85;4.07;;;11.70;99.90;;;;;;12443660;28;20042;-81
2021/04/23 11:32:13;;;;;;;11.68;4.57;;;12.70;99.90;;;;;;12437825;28;23545;-81
2021/04/23 11:38:14;;;;;;;11.38;4.45;;;13.00;99.90;;;;;;12433717;28;20470;-82
2021/04/23 11:44:54;;;;;;;12.73;4.80;;;13.50;99.90;;;;;;12418993;28;20045;-81
2021/04/23 11:51:02;;;;;;;9.30;4.45;;;13.30;99.90;;;;;;12383806;28;20104;-82
2021/04/23 11:57:06;;;;;;;8.90;4.53;;;13.50;99.90;;;;;;12386961;28;20439;-82
2021/04/23 12:03:10;;;;;;;10.00;4.45;;;13.00;99.90;;;;;;12385483;28;20046;-82
2021/04/23 12:09:16;;;;;;;7.95;4.25;;;13.00;99.90;;;;;;12388024;28;20047;-82
2021/04/23 12:15:20;;;;;;;9.18;4.38;;;13.50;99.90;;;;;;12372256;28;20260;-82
2021/04/23 12:21:21;;;;;;;11.57;4.50;;;13.80;99.90;;;;;;12414483;28;20208;-82
2021/04/23 12:27:26;;;;;;;8.65;4.30;;;14.00;99.90;;;;;;12374491;28;20516;-82
2021/04/23 12:33:48;;;;;;;10.23;4.70;;;13.90;99.90;;;;;;12392561;28;20132;-82
2021/04/23 12:39:50;;;;;;;10.20;4.80;;;13.70;99.90;;;;;;12399103;28;20545;-82
2021/04/23 12:45:56;;;;;;;10.45;4.72;;;14.50;99.90;;;;;;12388097;28;20041;-82
2021/04/23 12:52:13;;;;;;;11.75;4.85;;;14.90;99.90;;;;;;12384860;28;20099;-82
2021/04/23 12:58:14;;;;;;;10.27;4.80;;;14.60;99.90;;;;;;12398580;28;20053;-82
2021/04/23 13:04:19;;;;;;;9.85;4.15;;;13.90;99.90;;;;;;12390962;28;20550;-82
2021/04/23 13:10:24;;;;;;;8.25;4.40;;;14.40;99.90;;;;;;12386746;28;20181;-82
2021/04/23 13:16:26;;;;;;;10.75;4.50;;;14.80;99.90;;;;;;12389513;28;20094;-82
2021/04/23 13:22:32;;;;;;;11.98;4.60;;;15.10;99.90;;;;;;12392927;28;20051;-83
2021/04/23 13:28:41;;;;;;;10.50;5.50;;;15.30;99.90;;;;;;12381896;28;20133;-82
2021/04/23 13:34:58;;;;;;;8.30;4.60;;;15.50;99.90;;;;;;12388694;28;20652;-81
2021/04/23 13:41:23;;;;;;;11.85;4.60;;;15.90;99.90;;;;;;12402687;28;20133;-82
2021/04/23 13:47:37;;;;;;;8.65;4.75;;;16.10;99.90;;;;;;12406974;28;20130;-82
2021/04/23 13:53:39;;;;;;;8.87;4.50;;;15.80;99.90;;;;;;12380580;28;20047;-83
2021/04/23 13:59:41;;;;;;;10.20;4.88;;;15.90;99.90;;;;;;12392085;28;20088;-82
2021/04/23 14:05:42;;;;;;;9.65;4.72;;;16.00;99.90;;;;;;12391708;28;20148;-83
2021/04/23 14:11:47;;;;;;;9.73;4.47;;;15.60;99.90;;;;;;12389754;28;20146;-84
2021/04/23 14:17:48;;;;;;;9.60;4.45;;;15.00;99.90;;;;;;12397726;28;20112;-83
2021/04/23 14:23:50;;;;;;;9.00;4.32;;;14.90;99.90;;;;;;12398340;28;20509;-84
2021/04/23 14:29:52;;;;;;;14.52;5.05;;;15.20;99.90;;;;;;12397978;28;20114;-83
2021/04/23 14:35:53;;;;;;;9.68;4.60;;;14.90;99.90;;;;;;12419124;28;20062;-82
2021/04/23 14:41:55;;;;;;;15.63;5.60;;;15.40;99.90;;;;;;12403824;28;20197;-82
2021/04/23 14:47:57;;;;;;;8.27;4.32;;;15.40;99.90;;;;;;12400380;28;20046;-81
2021/04/23 14:53:58;;;;;;;9.43;4.50;;;15.40;99.90;;;;;;12394982;28;20064;-81
2021/04/23 15:00:00;;;;;;;12.38;5.18;;;15.40;99.90;;;;;;12398723;28;20174;-80
2021/04/23 15:06:01;;;;;;;9.80;5.10;;;15.80;99.90;;;;;;12395584;28;20038;-81
2021/04/23 15:12:03;;;;;;;8.77;4.65;;;15.80;99.90;;;;;;12397265;28;20608;-81
2021/04/23 15:18:05;;;;;;;13.43;4.90;;;15.80;99.90;;;;;;12387716;28;20055;-81
2021/04/23 15:24:07;;;;;;;9.60;4.60;;;16.00;99.90;;;;;;12382104;28;20059;-81
2021/04/23 15:30:18;;;;;;;8.57;4.15;;;16.50;99.90;;;;;;12383441;28;20054;-81
2021/04/23 15:36:21;;;;;;;8.43;4.72;;;16.30;99.90;;;;;;12401565;28;20147;-81
2021/04/23 15:42:22;;;;;;;10.13;4.63;;;16.10;99.90;;;;;;12383545;28;20129;-81
2021/04/23 15:48:23;;;;;;;12.93;4.38;;;16.50;99.90;;;;;;12392282;28;20097;-80
2021/04/23 15:54:25;;;;;;;8.52;3.78;;;16.50;99.90;;;;;;12386867;28;20441;-81
2021/04/23 16:00:29;;;;;;;7.55;3.97;;;16.40;99.90;;;;;;12394616;28;20042;-81
2021/04/23 16:06:31;;;;;;;11.13;3.78;;;16.50;99.90;;;;;;12389245;28;20089;-80
2021/04/23 16:12:33;;;;;;;10.50;4.40;;;16.80;99.90;;;;;;12387387;28;20042;-80
2021/04/23 16:18:34;;;;;;;9.23;3.95;;;16.80;99.90;;;;;;12389324;28;20085;-81
2021/04/23 16:24:36;;;;;;;7.25;3.75;;;16.40;99.90;;;;;;12408474;28;20050;-80
2021/04/23 16:30:37;;;;;;;8.23;4.22;;;16.40;99.90;;;;;;12376848;28;20046;-80
2021/04/23 16:36:39;;;;;;;11.75;4.40;;;16.70;99.90;;;;;;12382251;28;20050;-80
2021/04/23 16:42:41;;;;;;;10.25;4.15;;;16.70;99.90;;;;;;12396860;28;20054;-81
2021/04/23 16:48:42;;;;;;;10.70;4.30;;;17.30;99.90;;;;;;12400295;28;20174;-80
2021/04/23 16:54:44;;;;;;;8.43;3.95;;;17.40;99.90;;;;;;12391983;28;20526;-80
2021/04/23 17:00:45;;;;;;;10.40;4.30;;;17.20;99.90;;;;;;12381817;28;20970;-80
2021/04/23 17:06:47;;;;;;;8.93;4.50;;;17.10;99.90;;;;;;12386867;28;20179;-80
2021/04/23 17:12:48;;;;;;;11.20;4.07;;;16.90;99.90;;;;;;12392461;28;20043;-80
2021/04/23 17:18:50;;;;;;;7.22;4.03;;;16.80;99.90;;;;;;12398387;28;20049;-80
2021/04/23 17:24:52;;;;;;;10.10;3.67;;;17.00;99.90;;;;;;12396301;28;20125;-80
2021/04/23 17:30:53;;;;;;;10.55;5.22;;;16.70;99.90;;;;;;12384271;28;20142;-80
2021/04/23 17:36:55;;;;;;;9.27;3.80;;;15.90;99.90;;;;;;12385806;28;20050;-80
2021/04/23 17:42:56;;;;;;;11.15;3.55;;;15.60;99.90;;;;;;12388676;28;20122;-80
2021/04/23 17:48:57;;;;;;;9.73;3.90;;;15.60;99.90;;;;;;12376850;28;20526;-80
2021/04/23 17:54:59;;;;;;;8.88;3.95;;;15.20;99.90;;;;;;12391558;28;20061;-80
2021/04/23 18:01:00;;;;;;;10.68;3.80;;;14.70;99.90;;;;;;12389129;28;20045;-80
2021/04/23 18:07:01;;;;;;;10.88;3.60;;;13.50;99.90;;;;;;12390968;28;20173;-80
2021/04/23 18:13:03;;;;;;;11.35;3.72;;;12.80;99.90;;;;;;12399620;28;20062;-80
2021/04/23 18:19:04;;;;;;;8.75;3.50;;;12.50;99.90;;;;;;12390088;28;20093;-80
2021/04/23 18:25:07;;;;;;;9.55;3.88;;;12.00;99.90;;;;;;12394804;28;20129;-82
2021/04/23 18:31:08;;;;;;;12.73;3.45;;;11.70;99.90;;;;;;12402931;28;20094;-80
2021/04/23 18:37:10;;;;;;;10.82;4.13;;;11.50;99.90;;;;;;12395400;28;20417;-80
2021/04/23 18:43:11;;;;;;;10.85;4.38;;;11.30;99.90;;;;;;12388784;28;20193;-80
2021/04/23 18:49:13;;;;;;;10.95;3.90;;;11.10;99.90;;;;;;12396375;28;20104;-81
2021/04/23 18:55:17;;;;;;;9.20;3.30;;;10.90;99.90;;;;;;12389316;28;20129;-81
2021/04/23 19:01:19;;;;;;;12.20;4.13;;;10.60;99.90;;;;;;12392957;28;20050;-80
2021/04/23 19:07:20;;;;;;;8.82;3.38;;;10.40;99.90;;;;;;12394681;28;20078;-80
2021/04/23 19:13:21;;;;;;;16.13;3.90;;;10.30;99.90;;;;;;12393106;28;20096;-80
2021/04/23 19:19:23;;;;;;;10.63;3.72;;;10.00;99.90;;;;;;12390546;28;20064;-80
2021/04/23 19:25:25;;;;;;;11.65;4.13;;;9.90;99.90;;;;;;12392189;28;20101;-80
2021/04/23 19:31:26;;;;;;;11.55;4.30;;;9.90;99.90;;;;;;12408806;28;20053;-80
2021/04/23 19:37:30;;;;;;;7.72;4.00;;;9.70;99.90;;;;;;12415491;28;20493;-80
2021/04/23 19:43:32;;;;;;;9.43;4.25;;;9.60;99.90;;;;;;12388552;28;20145;-80
2021/04/23 19:49:33;;;;;;;10.60;4.20;;;9.50;99.90;;;;;;12396628;28;20084;-80
2021/04/23 19:55:35;;;;;;;11.27;5.60;;;9.60;99.90;;;;;;12394853;28;20109;-80
2021/04/23 20:01:36;;;;;;;11.38;4.45;;;9.70;99.90;;;;;;12409189;28;20075;-79
2021/04/23 20:07:38;;;;;;;7.68;3.65;;;9.40;99.90;;;;;;12394436;28;20112;-80
2021/04/23 20:13:39;;;;;;;7.93;3.30;;;9.10;99.90;;;;;;12400352;28;20053;-80
2021/04/23 20:19:40;;;;;;;8.95;2.67;;;8.80;99.90;;;;;;12390786;28;20157;-79
2021/04/23 20:25:42;;;;;;;9.77;3.53;;;8.70;99.90;;;;;;12379779;28;20038;-80
2021/04/23 20:31:43;;;;;;;5.85;2.67;;;8.50;99.90;;;;;;12392799;28;20172;-80
2021/04/23 20:37:45;;;;;;;9.35;3.00;;;8.40;99.90;;;;;;12391636;28;20479;-80
2021/04/23 20:43:46;;;;;;;8.52;2.78;;;8.50;99.90;;;;;;12387208;28;20533;-80
2021/04/23 20:49:48;;;;;;;8.30;3.30;;;8.20;99.90;;;;;;12388263;28;20057;-79
2021/04/23 20:55:49;;;;;;;12.90;3.67;;;8.10;99.90;;;;;;12393972;28;21537;-79
2021/04/23 21:01:51;;;;;;;9.35;2.80;;;8.10;99.90;;;;;;12395729;28;20140;-79
2021/04/23 21:07:52;;;;;;;8.88;2.80;;;8.00;99.90;;;;;;12394299;28;20039;-80
2021/04/23 21:13:53;;;;;;;14.25;2.88;;;7.70;99.90;;;;;;12397043;28;20089;-79
2021/04/23 21:19:55;;;;;;;8.18;2.50;;;7.60;99.90;;;;;;12433572;28;20050;-79
2021/04/23 21:25:56;;;;;;;7.80;2.42;;;7.80;99.90;;;;;;12460534;28;20080;-79
2021/04/23 21:31:58;;;;;;;7.03;2.03;;;7.50;99.90;;;;;;12444770;28;20049;-79
2021/04/23 21:38:00;;;;;;;7.45;2.08;;;7.60;99.90;;;;;;12419693;28;20299;-79
2021/04/23 21:44:01;;;;;;;12.45;3.55;;;7.30;99.90;;;;;;12408610;28;20078;-79
2021/04/23 21:50:04;;;;;;;6.05;2.33;;;7.40;99.90;;;;;;12417066;28;20149;-79
2021/04/23 21:56:06;;;;;;;7.47;2.28;;;7.40;99.90;;;;;;12406851;28;20557;-79
2021/04/23 22:02:07;;;;;;;10.25;2.38;;;7.00;99.90;;;;;;12423133;28;20129;-79
2021/04/23 22:08:08;;;;;;;4.63;2.00;;;7.00;99.90;;;;;;12418593;28;20061;-79
2021/04/23 22:14:10;;;;;;;6.28;2.00;;;7.00;99.90;;;;;;12406977;28;20049;-79
2021/04/23 22:20:13;;;;;;;10.10;2.13;;;6.70;99.90;;;;;;12401922;28;20104;-79
2021/04/23 22:26:14;;;;;;;6.72;2.10;;;6.50;99.90;;;;;;12406061;28;20106;-79
2021/04/23 22:32:16;;;;;;;7.47;2.00;;;6.50;99.90;;;;;;12397995;28;20168;-80
2021/04/23 22:38:17;;;;;;;8.18;2.13;;;6.50;99.90;;;;;;12393099;28;20660;-79
2021/04/23 22:44:18;;;;;;;5.22;1.92;;;6.40;99.90;;;;;;12396426;28;20196;-80
2021/04/23 22:50:20;;;;;;;10.13;2.10;;;6.20;99.90;;;;;;12405602;28;20247;-79
2021/04/23 22:56:23;;;;;;;5.03;2.20;;;6.20;99.90;;;;;;12401772;28;20046;-79
2021/04/23 23:02:24;;;;;;;7.38;2.30;;;6.00;99.90;;;;;;12391013;28;20042;-80
2021/04/23 23:08:26;;;;;;;6.93;2.70;;;6.10;99.90;;;;;;12394862;28;20043;-79
2021/04/23 23:14:27;;;;;;;7.38;2.70;;;5.90;99.90;;;;;;12406849;28;20054;-80
2021/04/23 23:20:28;;;;;;;12.90;2.75;;;5.80;99.90;;;;;;12403511;28;20169;-79
2021/04/23 23:26:30;;;;;;;11.73;3.25;;;5.70;99.90;;;;;;12410436;28;20144;-79
2021/04/23 23:32:31;;;;;;;8.55;2.85;;;5.50;99.90;;;;;;12390166;28;20141;-79
2021/04/23 23:38:33;;;;;;;7.72;2.95;;;5.40;99.90;;;;;;12383246;28;20053;-79
2021/04/23 23:44:34;;;;;;;9.20;2.55;;;5.30;99.90;;;;;;12382032;28;20092;-80
2021/04/23 23:50:35;;;;;;;9.80;2.53;;;5.00;99.90;;;;;;12379956;28;20088;-79
2021/04/23 23:56:37;;;;;;;11.43;2.78;;;5.00;99.90;;;;;;12389692;28;20125;-80
